Statham, Georgia
Current Conditions -  °F | °C
As of 5:15 PM on Wednesday 28 Jan 2015 (Local Time) from KWDR Reporting Station
Clear Clear  
Wind Chill: 52°   Ceiling: Unl
Heat Index: 52°   Visibility: 10mi
Dew Point: 28°   Wind: 0mph
Humidity: 41%   Direction: NA
Pressure: 30.25"   Gusts: NA
Location:  33.97°N, 83.6°W
Report Text: KWDR 282215Z AUTO 00000KT 10SM CLR 11/M02 A3025 RMK AO1
Loading
Personal Weather Stations






























Interactive Weather Map New forecast layout! Learn more

10-Day Weather Forecast

Advertisements
Track Severe Weather on mobile